Aviation Digital Data Service (ADDS)

Output produced by METARs form (2207 UTC 18 October 2017)
found at http://www.aviationweather.gov/adds/metars/
 
LZKZ 182200Z 03002KT 9999 BCFG NSC 11/10 Q1017
TAF LZKZ 181700Z 1818/1918 VRB02KT CAVOK 
     BECMG 1818/1820 3000 BR SCT005 
     TEMPO 1820/1908 0800 FG BKN004 
     PROB40 
     TEMPO 1900/1907 0200 FG VV001 
     BECMG 1908/1910 21006KT CAVOK
       
LZIB 182200Z VRB02KT CAVOK 10/08 Q1015
TAF LZIB 181700Z 1818/1918 17008KT CAVOK 
     BECMG 1819/1821 VRB02KT 5000 BR FEW006 
     TEMPO 1900/1907 1200 BCFG BKN003 
     BECMG 1907/1909 15008KT CAVOK
       
TAF LZMC 181930Z 1821/1906 VRB02KT 8000 NSC 
     BECMG 1821/1823 5000 BR NSC 
     TEMPO 1901/1906 1500 BCFG BR FEW008 
     PROB40 
     TEMPO 1902/1906 0600 FG VV001
       
LZPP 182200Z AUTO VRB02KT 5000 BR NCD 12/10 Q1015
TAF LZPP 181700Z 1818/1903 14008KT CAVOK 
     BECMG 1819/1821 20004KT 5000 BR NSC 
     TEMPO 1821/1903 0800 FG BKN002
       
LZSL 182200Z 00000KT 3000 1200SE R36/0550D BCFG SCT002 09/08 Q1017
TAF LZSL 182000Z 1821/1906 14004KT 4000 BCFG SCT003 
     BECMG 1821/1823 0600 FG BKN002 
     TEMPO 1823/1906 0100 FG VV001
       
LZTT 182200Z 25003KT CAVOK 05/05 Q1017
TAF LZTT 181700Z 1818/1918 15005KT CAVOK 
     BECMG 1818/1820 VRB02KT 
     BECMG 1820/1822 4000 BCFG FEW002 
     TEMPO 1900/1907 0400 FG BKN001 
     BECMG 1907/1909 06004KT CAVOK
       
LZZI 182200Z VRB01KT 4000 BR NSC 08/08 Q1016
TAF LZZI 182000Z 1821/1906 07003KT 4000 MIFG FEW004 
     BECMG 1821/1823 0800 FG BKN003 
     TEMPO 1823/1906 0200 FG OVC002